Terminal Aerodrome Forecast
Issued by NWS Newport/Morehead City, NC

Home | Current Version | Previous Version | Text Only | Print | Product List | Glossary On
Versions: 1 2 3 4 5 6 7 8 9 10 11 12 13 14 15
000
FTUS42 KMHX 232336
TAFEWN
TAF
KEWN 232336Z 2400/2424 21009KT 6SM -SHRA SCT008 OVC025
      TEMPO 2400/2402 5SM -SHRA OVC008
     FM240200 21009KT 2SM SHRA SCT008 OVC015
     FM240600 21008KT P6SM VCSH OVC008
     FM241400 24005KT P6SM OVC015
     FM241800 18007KT 6SM -SHRA OVC030=

USA.gov is the U.S. government's official web portal to all federal, state and local government web resources and services.